sensor_id;sensor_type;location;lat;lon;timestamp;P1;durP1;ratioP1;P2;durP2;ratioP2
7239;SDS011;3661;53.288;10.458;2023-02-15T00:01:12;834.80;;;757.30;;
7239;SDS011;3661;53.288;10.458;2023-02-15T00:03:45;834.03;;;756.97;;
7239;SDS011;3661;53.288;10.458;2023-02-15T00:06:19;828.00;;;751.17;;
7239;SDS011;3661;53.288;10.458;2023-02-15T00:08:52;826.85;;;749.72;;
7239;SDS011;3661;53.288;10.458;2023-02-15T00:11:25;839.60;;;762.67;;
7239;SDS011;3661;53.288;10.458;2023-02-15T00:14:21;827.90;;;750.92;;
7239;SDS011;3661;53.288;10.458;2023-02-15T00:16:54;825.67;;;748.47;;
7239;SDS011;3661;53.288;10.458;2023-02-15T00:19:31;851.85;;;774.05;;
7239;SDS011;3661;53.288;10.458;2023-02-15T00:22:03;836.80;;;759.15;;
7239;SDS011;3661;53.288;10.458;2023-02-15T00:24:35;825.60;;;748.20;;
7239;SDS011;3661;53.288;10.458;2023-02-15T00:27:07;822.22;;;745.03;;
7239;SDS011;3661;53.288;10.458;2023-02-15T00:29:40;838.65;;;761.33;;
7239;SDS011;3661;53.288;10.458;2023-02-15T00:32:12;832.27;;;755.40;;
7239;SDS011;3661;53.288;10.458;2023-02-15T00:34:45;839.58;;;762.15;;
7239;SDS011;3661;53.288;10.458;2023-02-15T00:37:17;821.10;;;744.28;;
7239;SDS011;3661;53.288;10.458;2023-02-15T00:39:49;815.38;;;738.15;;
7239;SDS011;3661;53.288;10.458;2023-02-15T00:42:21;823.30;;;746.13;;
7239;SDS011;3661;53.288;10.458;2023-02-15T00:44:53;827.60;;;750.58;;
7239;SDS011;3661;53.288;10.458;2023-02-15T00:47:25;829.10;;;752.22;;
7239;SDS011;3661;53.288;10.458;2023-02-15T00:49:59;829.75;;;753.25;;
7239;SDS011;3661;53.288;10.458;2023-02-15T00:52:33;828.15;;;751.35;;
7239;SDS011;3661;53.288;10.458;2023-02-15T00:55:05;832.67;;;755.92;;
7239;SDS011;3661;53.288;10.458;2023-02-15T00:57:38;840.08;;;763.58;;
7239;SDS011;3661;53.288;10.458;2023-02-15T01:00:10;810.80;;;734.50;;
7239;SDS011;3661;53.288;10.458;2023-02-15T01:02:44;841.60;;;765.13;;
7239;SDS011;3661;53.288;10.458;2023-02-15T01:05:18;821.40;;;745.13;;
7239;SDS011;3661;53.288;10.458;2023-02-15T01:07:50;830.07;;;753.63;;
7239;SDS011;3661;53.288;10.458;2023-02-15T01:10:22;816.00;;;739.70;;
7239;SDS011;3661;53.288;10.458;2023-02-15T01:12:55;832.88;;;756.65;;
7239;SDS011;3661;53.288;10.458;2023-02-15T01:15:28;813.45;;;737.38;;
7239;SDS011;3661;53.288;10.458;2023-02-15T01:18:00;825.53;;;749.15;;
7239;SDS011;3661;53.288;10.458;2023-02-15T01:20:35;815.45;;;739.13;;
7239;SDS011;3661;53.288;10.458;2023-02-15T01:23:11;816.65;;;740.28;;
7239;SDS011;3661;53.288;10.458;2023-02-15T01:25:43;818.72;;;742.28;;
7239;SDS011;3661;53.288;10.458;2023-02-15T01:28:15;827.10;;;750.28;;
7239;SDS011;3661;53.288;10.458;2023-02-15T01:30:47;829.97;;;753.10;;
7239;SDS011;3661;53.288;10.458;2023-02-15T01:33:20;812.85;;;735.83;;
7239;SDS011;3661;53.288;10.458;2023-02-15T01:35:58;811.85;;;735.38;;
7239;SDS011;3661;53.288;10.458;2023-02-15T01:38:30;813.78;;;737.08;;
7239;SDS011;3661;53.288;10.458;2023-02-15T01:41:03;809.88;;;733.03;;
7239;SDS011;3661;53.288;10.458;2023-02-15T01:43:53;807.78;;;730.90;;
7239;SDS011;3661;53.288;10.458;2023-02-15T01:46:27;810.92;;;734.17;;
7239;SDS011;3661;53.288;10.458;2023-02-15T01:49:06;817.80;;;741.40;;
7239;SDS011;3661;53.288;10.458;2023-02-15T01:51:44;811.72;;;735.17;;
7239;SDS011;3661;53.288;10.458;2023-02-15T01:54:19;791.08;;;714.97;;
7239;SDS011;3661;53.288;10.458;2023-02-15T01:56:54;808.00;;;731.35;;
7239;SDS011;3661;53.288;10.458;2023-02-15T01:59:32;811.50;;;734.70;;
7239;SDS011;3661;53.288;10.458;2023-02-15T02:02:07;811.72;;;734.55;;
7239;SDS011;3661;53.288;10.458;2023-02-15T02:04:41;801.72;;;725.28;;
7239;SDS011;3661;53.288;10.458;2023-02-15T02:07:19;793.97;;;717.73;;
7239;SDS011;3661;53.288;10.458;2023-02-15T02:09:53;808.08;;;731.38;;
7239;SDS011;3661;53.288;10.458;2023-02-15T02:12:25;786.28;;;709.88;;
7239;SDS011;3661;53.288;10.458;2023-02-15T02:14:59;803.92;;;727.20;;
7239;SDS011;3661;53.288;10.458;2023-02-15T02:17:37;811.00;;;734.33;;
7239;SDS011;3661;53.288;10.458;2023-02-15T02:20:36;808.13;;;731.33;;
7239;SDS011;3661;53.288;10.458;2023-02-15T02:23:29;799.85;;;723.72;;
7239;SDS011;3661;53.288;10.458;2023-02-15T02:29:40;803.22;;;726.67;;
7239;SDS011;3661;53.288;10.458;2023-02-15T02:35:51;798.00;;;721.90;;
7239;SDS011;3661;53.288;10.458;2023-02-15T02:38:32;795.60;;;719.10;;
7239;SDS011;3661;53.288;10.458;2023-02-15T02:41:16;789.45;;;713.10;;
7239;SDS011;3661;53.288;10.458;2023-02-15T02:43:54;804.97;;;728.17;;
7239;SDS011;3661;53.288;10.458;2023-02-15T02:46:35;793.40;;;716.38;;
7239;SDS011;3661;53.288;10.458;2023-02-15T02:49:15;766.05;;;690.10;;
7239;SDS011;3661;53.288;10.458;2023-02-15T02:51:57;793.88;;;717.40;;
7239;SDS011;3661;53.288;10.458;2023-02-15T02:54:30;775.90;;;699.80;;
7239;SDS011;3661;53.288;10.458;2023-02-15T02:57:04;781.55;;;705.53;;
7239;SDS011;3661;53.288;10.458;2023-02-15T02:59:43;788.03;;;711.83;;
7239;SDS011;3661;53.288;10.458;2023-02-15T03:02:18;786.60;;;710.30;;
7239;SDS011;3661;53.288;10.458;2023-02-15T03:05:02;784.77;;;708.33;;
7239;SDS011;3661;53.288;10.458;2023-02-15T03:07:41;770.50;;;694.20;;
7239;SDS011;3661;53.288;10.458;2023-02-15T03:10:17;786.20;;;710.03;;
7239;SDS011;3661;53.288;10.458;2023-02-15T03:12:52;768.10;;;692.20;;
7239;SDS011;3661;53.288;10.458;2023-02-15T03:15:28;762.38;;;686.28;;
7239;SDS011;3661;53.288;10.458;2023-02-15T03:18:20;752.25;;;676.63;;
7239;SDS011;3661;53.288;10.458;2023-02-15T03:20:56;761.37;;;685.50;;
7239;SDS011;3661;53.288;10.458;2023-02-15T03:23:33;741.83;;;666.22;;
7239;SDS011;3661;53.288;10.458;2023-02-15T03:26:09;771.15;;;695.35;;
7239;SDS011;3661;53.288;10.458;2023-02-15T03:28:43;755.58;;;679.97;;
7239;SDS011;3661;53.288;10.458;2023-02-15T03:31:17;751.67;;;675.78;;
7239;SDS011;3661;53.288;10.458;2023-02-15T03:33:52;765.53;;;689.90;;
7239;SDS011;3661;53.288;10.458;2023-02-15T03:36:30;761.43;;;685.63;;
7239;SDS011;3661;53.288;10.458;2023-02-15T03:39:12;746.88;;;671.72;;
7239;SDS011;3661;53.288;10.458;2023-02-15T03:41:53;768.03;;;692.70;;
7239;SDS011;3661;53.288;10.458;2023-02-15T03:44:29;753.10;;;677.75;;
7239;SDS011;3661;53.288;10.458;2023-02-15T03:47:06;764.25;;;688.95;;
7239;SDS011;3661;53.288;10.458;2023-02-15T03:49:43;761.87;;;686.53;;
7239;SDS011;3661;53.288;10.458;2023-02-15T03:52:21;761.50;;;686.20;;
7239;SDS011;3661;53.288;10.458;2023-02-15T03:54:58;730.03;;;655.28;;
7239;SDS011;3661;53.288;10.458;2023-02-15T03:57:30;746.83;;;671.80;;
7239;SDS011;3661;53.288;10.458;2023-02-15T04:00:24;745.70;;;670.90;;
7239;SDS011;3661;53.288;10.458;2023-02-15T04:03:20;754.92;;;679.78;;
7239;SDS011;3661;53.288;10.458;2023-02-15T04:05:57;742.27;;;667.23;;
7239;SDS011;3661;53.288;10.458;2023-02-15T04:08:31;723.50;;;648.55;;
7239;SDS011;3661;53.288;10.458;2023-02-15T04:11:18;739.42;;;664.70;;
7239;SDS011;3661;53.288;10.458;2023-02-15T04:13:53;743.90;;;669.30;;
7239;SDS011;3661;53.288;10.458;2023-02-15T04:16:28;729.55;;;655.03;;
7239;SDS011;3661;53.288;10.458;2023-02-15T04:18:59;729.38;;;655.25;;
7239;SDS011;3661;53.288;10.458;2023-02-15T04:21:48;713.60;;;639.72;;
7239;SDS011;3661;53.288;10.458;2023-02-15T04:24:38;725.47;;;651.47;;
7239;SDS011;3661;53.288;10.458;2023-02-15T04:27:29;739.63;;;665.55;;
7239;SDS011;3661;53.288;10.458;2023-02-15T04:30:01;733.05;;;658.85;;
7239;SDS011;3661;53.288;10.458;2023-02-15T04:32:36;723.33;;;649.23;;
7239;SDS011;3661;53.288;10.458;2023-02-15T04:35:09;731.58;;;657.50;;
7239;SDS011;3661;53.288;10.458;2023-02-15T04:37:41;736.70;;;662.20;;
7239;SDS011;3661;53.288;10.458;2023-02-15T04:40:14;736.63;;;662.30;;
7239;SDS011;3661;53.288;10.458;2023-02-15T04:42:48;732.72;;;658.20;;
7239;SDS011;3661;53.288;10.458;2023-02-15T04:45:21;728.28;;;654.15;;
7239;SDS011;3661;53.288;10.458;2023-02-15T04:47:53;741.93;;;667.83;;
7239;SDS011;3661;53.288;10.458;2023-02-15T04:50:25;737.47;;;663.38;;
7239;SDS011;3661;53.288;10.458;2023-02-15T04:52:57;730.08;;;656.25;;
7239;SDS011;3661;53.288;10.458;2023-02-15T04:55:29;726.35;;;652.30;;
7239;SDS011;3661;53.288;10.458;2023-02-15T04:58:03;727.63;;;653.55;;
7239;SDS011;3661;53.288;10.458;2023-02-15T05:00:35;738.17;;;663.88;;
7239;SDS011;3661;53.288;10.458;2023-02-15T05:03:07;724.77;;;650.67;;
7239;SDS011;3661;53.288;10.458;2023-02-15T05:05:40;710.40;;;636.50;;
7239;SDS011;3661;53.288;10.458;2023-02-15T05:08:12;727.28;;;653.58;;
7239;SDS011;3661;53.288;10.458;2023-02-15T05:10:44;717.83;;;644.47;;
7239;SDS011;3661;53.288;10.458;2023-02-15T05:13:19;713.92;;;640.50;;
7239;SDS011;3661;53.288;10.458;2023-02-15T05:15:52;722.10;;;648.72;;
7239;SDS011;3661;53.288;10.458;2023-02-15T05:18:24;713.63;;;639.97;;
7239;SDS011;3661;53.288;10.458;2023-02-15T05:20:56;705.63;;;632.42;;
7239;SDS011;3661;53.288;10.458;2023-02-15T05:23:28;705.92;;;632.40;;
7239;SDS011;3661;53.288;10.458;2023-02-15T05:26:00;720.90;;;647.30;;
7239;SDS011;3661;53.288;10.458;2023-02-15T05:28:52;709.38;;;636.08;;
7239;SDS011;3661;53.288;10.458;2023-02-15T05:31:24;716.05;;;642.85;;
7239;SDS011;3661;53.288;10.458;2023-02-15T05:33:56;711.38;;;638.05;;
7239;SDS011;3661;53.288;10.458;2023-02-15T05:36:28;699.35;;;626.03;;
7239;SDS011;3661;53.288;10.458;2023-02-15T05:39:00;698.28;;;625.17;;
7239;SDS011;3661;53.288;10.458;2023-02-15T05:41:35;729.47;;;656.20;;
7239;SDS011;3661;53.288;10.458;2023-02-15T05:44:10;705.37;;;632.30;;
7239;SDS011;3661;53.288;10.458;2023-02-15T05:46:42;705.58;;;632.40;;
7239;SDS011;3661;53.288;10.458;2023-02-15T05:49:14;692.08;;;619.72;;
7239;SDS011;3661;53.288;10.458;2023-02-15T05:51:46;706.20;;;633.25;;
7239;SDS011;3661;53.288;10.458;2023-02-15T05:54:18;682.70;;;610.47;;
7239;SDS011;3661;53.288;10.458;2023-02-15T05:56:50;699.97;;;627.20;;
7239;SDS011;3661;53.288;10.458;2023-02-15T05:59:24;712.57;;;639.57;;
7239;SDS011;3661;53.288;10.458;2023-02-15T06:01:56;700.07;;;627.73;;
7239;SDS011;3661;53.288;10.458;2023-02-15T06:04:28;678.30;;;605.67;;
7239;SDS011;3661;53.288;10.458;2023-02-15T06:07:00;695.42;;;622.67;;
7239;SDS011;3661;53.288;10.458;2023-02-15T06:09:32;687.97;;;615.67;;
7239;SDS011;3661;53.288;10.458;2023-02-15T06:12:04;686.22;;;613.70;;
7239;SDS011;3661;53.288;10.458;2023-02-15T06:14:38;685.50;;;613.20;;
7239;SDS011;3661;53.288;10.458;2023-02-15T06:17:10;702.60;;;629.70;;
7239;SDS011;3661;53.288;10.458;2023-02-15T06:19:43;701.60;;;629.33;;
7239;SDS011;3661;53.288;10.458;2023-02-15T06:22:15;701.53;;;628.97;;
7239;SDS011;3661;53.288;10.458;2023-02-15T06:24:47;691.90;;;619.70;;
7239;SDS011;3661;53.288;10.458;2023-02-15T06:27:19;715.13;;;642.55;;
7239;SDS011;3661;53.288;10.458;2023-02-15T06:29:53;706.03;;;633.23;;
7239;SDS011;3661;53.288;10.458;2023-02-15T06:32:25;701.70;;;629.30;;
7239;SDS011;3661;53.288;10.458;2023-02-15T06:34:57;692.78;;;620.15;;
7239;SDS011;3661;53.288;10.458;2023-02-15T06:37:29;703.10;;;630.88;;
7239;SDS011;3661;53.288;10.458;2023-02-15T06:40:02;712.17;;;639.78;;
7239;SDS011;3661;53.288;10.458;2023-02-15T06:42:35;699.00;;;626.73;;
7239;SDS011;3661;53.288;10.458;2023-02-15T06:45:09;697.35;;;624.75;;
7239;SDS011;3661;53.288;10.458;2023-02-15T06:47:42;701.58;;;628.83;;
7239;SDS011;3661;53.288;10.458;2023-02-15T06:50:14;685.93;;;613.23;;
7239;SDS011;3661;53.288;10.458;2023-02-15T06:52:46;690.05;;;617.60;;
7239;SDS011;3661;53.288;10.458;2023-02-15T06:55:18;695.03;;;622.45;;
7239;SDS011;3661;53.288;10.458;2023-02-15T06:57:50;698.20;;;625.53;;
7239;SDS011;3661;53.288;10.458;2023-02-15T07:00:23;690.07;;;617.43;;
7239;SDS011;3661;53.288;10.458;2023-02-15T07:02:56;697.77;;;625.03;;
7239;SDS011;3661;53.288;10.458;2023-02-15T07:05:32;694.55;;;622.00;;
7239;SDS011;3661;53.288;10.458;2023-02-15T07:08:04;694.65;;;622.28;;
7239;SDS011;3661;53.288;10.458;2023-02-15T07:10:37;703.33;;;630.75;;
7239;SDS011;3661;53.288;10.458;2023-02-15T07:13:09;696.58;;;624.08;;
7239;SDS011;3661;53.288;10.458;2023-02-15T07:15:41;697.25;;;624.85;;
7239;SDS011;3661;53.288;10.458;2023-02-15T07:18:13;701.65;;;629.35;;
7239;SDS011;3661;53.288;10.458;2023-02-15T07:20:46;693.88;;;621.75;;
7239;SDS011;3661;53.288;10.458;2023-02-15T07:23:18;685.60;;;613.78;;
7239;SDS011;3661;53.288;10.458;2023-02-15T07:25:55;685.37;;;613.20;;
7239;SDS011;3661;53.288;10.458;2023-02-15T07:28:28;693.83;;;621.85;;
7239;SDS011;3661;53.288;10.458;2023-02-15T07:31:02;699.45;;;627.45;;
7239;SDS011;3661;53.288;10.458;2023-02-15T07:33:35;690.58;;;618.88;;
7239;SDS011;3661;53.288;10.458;2023-02-15T07:36:07;694.90;;;622.42;;
7239;SDS011;3661;53.288;10.458;2023-02-15T07:38:42;695.45;;;623.67;;
7239;SDS011;3661;53.288;10.458;2023-02-15T07:41:16;709.10;;;637.23;;
7239;SDS011;3661;53.288;10.458;2023-02-15T07:43:48;697.60;;;625.47;;
7239;SDS011;3661;53.288;10.458;2023-02-15T07:46:22;685.35;;;613.33;;
7239;SDS011;3661;53.288;10.458;2023-02-15T07:48:54;695.47;;;623.50;;
7239;SDS011;3661;53.288;10.458;2023-02-15T07:51:26;692.97;;;620.78;;
7239;SDS011;3661;53.288;10.458;2023-02-15T07:53:58;684.30;;;612.45;;
7239;SDS011;3661;53.288;10.458;2023-02-15T07:56:30;702.43;;;630.13;;
7239;SDS011;3661;53.288;10.458;2023-02-15T07:59:02;687.85;;;616.13;;
7239;SDS011;3661;53.288;10.458;2023-02-15T08:01:37;698.03;;;626.22;;
7239;SDS011;3661;53.288;10.458;2023-02-15T08:04:10;693.70;;;621.35;;
7239;SDS011;3661;53.288;10.458;2023-02-15T08:06:42;697.17;;;625.25;;
7239;SDS011;3661;53.288;10.458;2023-02-15T08:09:14;684.47;;;612.10;;
7239;SDS011;3661;53.288;10.458;2023-02-15T08:11:46;690.58;;;618.47;;
7239;SDS011;3661;53.288;10.458;2023-02-15T08:14:21;691.95;;;619.80;;
7239;SDS011;3661;53.288;10.458;2023-02-15T08:16:55;713.07;;;640.83;;
7239;SDS011;3661;53.288;10.458;2023-02-15T08:19:32;703.15;;;630.90;;
7239;SDS011;3661;53.288;10.458;2023-02-15T08:22:06;711.35;;;638.97;;
7239;SDS011;3661;53.288;10.458;2023-02-15T08:24:40;699.00;;;626.60;;
7239;SDS011;3661;53.288;10.458;2023-02-15T08:27:12;704.13;;;631.55;;
7239;SDS011;3661;53.288;10.458;2023-02-15T08:29:44;715.88;;;642.67;;
7239;SDS011;3661;53.288;10.458;2023-02-15T08:32:18;700.95;;;627.72;;
7239;SDS011;3661;53.288;10.458;2023-02-15T08:34:50;709.47;;;636.25;;
7239;SDS011;3661;53.288;10.458;2023-02-15T08:37:22;726.85;;;653.30;;
7239;SDS011;3661;53.288;10.458;2023-02-15T08:39:55;705.58;;;632.58;;
7239;SDS011;3661;53.288;10.458;2023-02-15T08:42:27;729.25;;;655.42;;
7239;SDS011;3661;53.288;10.458;2023-02-15T08:45:00;700.45;;;627.03;;
7239;SDS011;3661;53.288;10.458;2023-02-15T08:47:34;712.40;;;638.67;;
7239;SDS011;3661;53.288;10.458;2023-02-15T08:50:06;706.42;;;632.92;;
7239;SDS011;3661;53.288;10.458;2023-02-15T08:52:38;710.53;;;636.60;;
7239;SDS011;3661;53.288;10.458;2023-02-15T08:55:10;708.95;;;635.10;;
7239;SDS011;3661;53.288;10.458;2023-02-15T08:57:42;729.72;;;655.95;;
7239;SDS011;3661;53.288;10.458;2023-02-15T09:00:16;725.95;;;652.30;;
7239;SDS011;3661;53.288;10.458;2023-02-15T09:02:50;734.78;;;660.97;;
7239;SDS011;3661;53.288;10.458;2023-02-15T09:05:22;721.08;;;647.47;;
7239;SDS011;3661;53.288;10.458;2023-02-15T09:07:54;739.53;;;665.67;;
7239;SDS011;3661;53.288;10.458;2023-02-15T09:10:26;732.67;;;658.67;;
7239;SDS011;3661;53.288;10.458;2023-02-15T09:12:58;738.25;;;664.00;;
7239;SDS011;3661;53.288;10.458;2023-02-15T09:15:31;734.15;;;660.25;;
7239;SDS011;3661;53.288;10.458;2023-02-15T09:18:04;736.13;;;662.40;;
7239;SDS011;3661;53.288;10.458;2023-02-15T09:20:37;737.70;;;663.60;;
7239;SDS011;3661;53.288;10.458;2023-02-15T09:23:09;744.13;;;670.10;;
7239;SDS011;3661;53.288;10.458;2023-02-15T09:25:41;751.67;;;677.08;;
7239;SDS011;3661;53.288;10.458;2023-02-15T09:28:13;735.00;;;660.65;;
7239;SDS011;3661;53.288;10.458;2023-02-15T09:30:45;736.90;;;662.58;;
7239;SDS011;3661;53.288;10.458;2023-02-15T09:33:19;748.88;;;674.38;;
7239;SDS011;3661;53.288;10.458;2023-02-15T09:35:52;762.83;;;687.88;;
7239;SDS011;3661;53.288;10.458;2023-02-15T09:38:24;744.10;;;669.28;;
7239;SDS011;3661;53.288;10.458;2023-02-15T09:40:59;743.42;;;668.97;;
7239;SDS011;3661;53.288;10.458;2023-02-15T09:43:42;769.08;;;693.70;;
7239;SDS011;3661;53.288;10.458;2023-02-15T09:46:28;762.60;;;686.90;;
7239;SDS011;3661;53.288;10.458;2023-02-15T09:49:11;781.38;;;705.15;;
7239;SDS011;3661;53.288;10.458;2023-02-15T09:55:06;767.60;;;691.63;;
7239;SDS011;3661;53.288;10.458;2023-02-15T09:57:55;765.50;;;689.55;;
7239;SDS011;3661;53.288;10.458;2023-02-15T10:00:38;778.92;;;702.83;;
7239;SDS011;3661;53.288;10.458;2023-02-15T10:03:20;786.88;;;710.65;;
7239;SDS011;3661;53.288;10.458;2023-02-15T10:06:09;771.95;;;695.47;;
7239;SDS011;3661;53.288;10.458;2023-02-15T10:08:58;790.90;;;713.90;;
7239;SDS011;3661;53.288;10.458;2023-02-15T10:11:40;775.47;;;698.70;;
7239;SDS011;3661;53.288;10.458;2023-02-15T10:17:19;780.33;;;703.30;;
7239;SDS011;3661;53.288;10.458;2023-02-15T10:20:09;785.33;;;708.17;;
7239;SDS011;3661;53.288;10.458;2023-02-15T10:22:54;789.47;;;712.22;;
7239;SDS011;3661;53.288;10.458;2023-02-15T10:25:40;793.78;;;716.33;;
7239;SDS011;3661;53.288;10.458;2023-02-15T10:28:17;792.85;;;715.15;;
7239;SDS011;3661;53.288;10.458;2023-02-15T10:30:51;796.13;;;718.53;;
7239;SDS011;3661;53.288;10.458;2023-02-15T10:33:31;811.08;;;733.40;;
7239;SDS011;3661;53.288;10.458;2023-02-15T10:36:12;804.90;;;727.15;;
7239;SDS011;3661;53.288;10.458;2023-02-15T10:38:57;805.72;;;728.00;;
7239;SDS011;3661;53.288;10.458;2023-02-15T10:45:06;834.65;;;756.47;;
7239;SDS011;3661;53.288;10.458;2023-02-15T10:51:16;819.35;;;741.42;;
7239;SDS011;3661;53.288;10.458;2023-02-15T10:57:23;833.40;;;755.40;;
7239;SDS011;3661;53.288;10.458;2023-02-15T11:03:34;850.25;;;771.53;;
7239;SDS011;3661;53.288;10.458;2023-02-15T11:09:47;849.90;;;770.67;;
7239;SDS011;3661;53.288;10.458;2023-02-15T11:16:27;843.05;;;763.63;;
7239;SDS011;3661;53.288;10.458;2023-02-15T11:36:50;905.30;;;824.15;;
7239;SDS011;3661;53.288;10.458;2023-02-15T11:42:53;902.78;;;821.70;;
7239;SDS011;3661;53.288;10.458;2023-02-15T11:45:29;916.92;;;835.20;;
7239;SDS011;3661;53.288;10.458;2023-02-15T11:48:08;921.90;;;840.13;;
7239;SDS011;3661;53.288;10.458;2023-02-15T11:50:42;939.03;;;857.08;;
7239;SDS011;3661;53.288;10.458;2023-02-15T11:53:17;920.60;;;838.55;;
7239;SDS011;3661;53.288;10.458;2023-02-15T11:55:54;943.10;;;860.50;;
7239;SDS011;3661;53.288;10.458;2023-02-15T11:58:28;930.40;;;847.97;;
7239;SDS011;3661;53.288;10.458;2023-02-15T12:01:08;947.75;;;865.13;;
7239;SDS011;3661;53.288;10.458;2023-02-15T12:03:45;946.15;;;863.05;;
7239;SDS011;3661;53.288;10.458;2023-02-15T12:06:20;956.58;;;873.17;;
7239;SDS011;3661;53.288;10.458;2023-02-15T12:08:57;975.90;;;892.30;;
7239;SDS011;3661;53.288;10.458;2023-02-15T12:11:35;967.45;;;883.63;;
7239;SDS011;3661;53.288;10.458;2023-02-15T12:14:09;949.25;;;865.35;;
7239;SDS011;3661;53.288;10.458;2023-02-15T12:16:46;981.28;;;897.40;;
7239;SDS011;3661;53.288;10.458;2023-02-15T12:19:28;994.30;;;909.90;;
7239;SDS011;3661;53.288;10.458;2023-02-15T12:22:02;999.97;;;915.72;;
7239;SDS011;3661;53.288;10.458;2023-02-15T12:24:38;1004.38;;;919.85;;
7239;SDS011;3661;53.288;10.458;2023-02-15T12:27:17;1009.42;;;924.85;;
7239;SDS011;3661;53.288;10.458;2023-02-15T12:29:51;1043.07;;;958.13;;
7239;SDS011;3661;53.288;10.458;2023-02-15T12:32:27;1102.28;;;999.90;;
7239;SDS011;3661;53.288;10.458;2023-02-15T12:35:02;1153.47;;;999.90;;
7239;SDS011;3661;53.288;10.458;2023-02-15T12:37:51;1247.03;;;999.90;;
7239;SDS011;3661;53.288;10.458;2023-02-15T12:43:00;1186.68;;;999.90;;
7239;SDS011;3661;53.288;10.458;2023-02-15T12:45:38;1201.63;;;999.90;;
7239;SDS011;3661;53.288;10.458;2023-02-15T12:48:14;1239.87;;;999.90;;
7239;SDS011;3661;53.288;10.458;2023-02-15T12:50:48;1210.20;;;999.90;;
7239;SDS011;3661;53.288;10.458;2023-02-15T12:53:22;1241.03;;;999.90;;
7239;SDS011;3661;53.288;10.458;2023-02-15T12:56:07;1243.93;;;999.90;;
7239;SDS011;3661;53.288;10.458;2023-02-15T12:58:41;1242.38;;;999.90;;
7239;SDS011;3661;53.288;10.458;2023-02-15T13:01:16;1317.90;;;999.90;;
7239;SDS011;3661;53.288;10.458;2023-02-15T13:03:54;1263.03;;;999.90;;
7239;SDS011;3661;53.288;10.458;2023-02-15T13:06:30;1371.38;;;999.90;;
7239;SDS011;3661;53.288;10.458;2023-02-15T13:09:06;1383.28;;;999.90;;
7239;SDS011;3661;53.288;10.458;2023-02-15T13:11:48;1394.03;;;999.90;;
7239;SDS011;3661;53.288;10.458;2023-02-15T13:14:21;1374.85;;;999.90;;
7239;SDS011;3661;53.288;10.458;2023-02-15T13:17:00;1408.23;;;999.90;;
7239;SDS011;3661;53.288;10.458;2023-02-15T13:19:35;1389.07;;;999.90;;
7239;SDS011;3661;53.288;10.458;2023-02-15T13:22:12;1404.45;;;999.90;;
7239;SDS011;3661;53.288;10.458;2023-02-15T13:24:47;1416.13;;;999.90;;
7239;SDS011;3661;53.288;10.458;2023-02-15T13:27:26;1433.07;;;999.90;;
7239;SDS011;3661;53.288;10.458;2023-02-15T13:30:10;1419.03;;;999.90;;
7239;SDS011;3661;53.288;10.458;2023-02-15T13:32:52;1436.70;;;999.90;;
7239;SDS011;3661;53.288;10.458;2023-02-15T13:35:28;1443.50;;;999.90;;
7239;SDS011;3661;53.288;10.458;2023-02-15T13:38:09;1441.18;;;999.90;;
7239;SDS011;3661;53.288;10.458;2023-02-15T13:40:48;1471.57;;;999.90;;
7239;SDS011;3661;53.288;10.458;2023-02-15T13:43:31;1465.30;;;999.90;;
7239;SDS011;3661;53.288;10.458;2023-02-15T13:46:15;1475.80;;;999.90;;
7239;SDS011;3661;53.288;10.458;2023-02-15T13:48:58;1495.85;;;999.90;;
7239;SDS011;3661;53.288;10.458;2023-02-15T13:51:41;1470.07;;;999.90;;
7239;SDS011;3661;53.288;10.458;2023-02-15T13:54:24;1500.78;;;999.90;;
7239;SDS011;3661;53.288;10.458;2023-02-15T13:57:20;1502.53;;;999.90;;
7239;SDS011;3661;53.288;10.458;2023-02-15T14:00:11;1499.10;;;999.90;;
7239;SDS011;3661;53.288;10.458;2023-02-15T14:02:56;1518.45;;;999.90;;
7239;SDS011;3661;53.288;10.458;2023-02-15T14:09:00;1527.50;;;999.90;;
7239;SDS011;3661;53.288;10.458;2023-02-15T14:11:44;1524.97;;;999.90;;
7239;SDS011;3661;53.288;10.458;2023-02-15T14:14:30;1523.45;;;999.90;;
7239;SDS011;3661;53.288;10.458;2023-02-15T14:17:20;1546.07;;;999.90;;
7239;SDS011;3661;53.288;10.458;2023-02-15T14:19:57;1539.57;;;999.90;;
7239;SDS011;3661;53.288;10.458;2023-02-15T14:22:34;1532.47;;;999.90;;
7239;SDS011;3661;53.288;10.458;2023-02-15T14:25:16;1534.22;;;999.90;;
7239;SDS011;3661;53.288;10.458;2023-02-15T14:27:54;1537.22;;;999.90;;
7239;SDS011;3661;53.288;10.458;2023-02-15T14:30:33;1533.70;;;999.90;;
7239;SDS011;3661;53.288;10.458;2023-02-15T14:33:18;1529.90;;;999.90;;
7239;SDS011;3661;53.288;10.458;2023-02-15T14:36:02;1504.03;;;999.90;;
7239;SDS011;3661;53.288;10.458;2023-02-15T14:38:50;1496.70;;;999.90;;
7239;SDS011;3661;53.288;10.458;2023-02-15T14:41:29;1508.33;;;999.90;;
7239;SDS011;3661;53.288;10.458;2023-02-15T14:44:08;1504.35;;;999.90;;
7239;SDS011;3661;53.288;10.458;2023-02-15T14:46:48;1491.47;;;999.90;;
7239;SDS011;3661;53.288;10.458;2023-02-15T14:49:27;1481.57;;;999.90;;
7239;SDS011;3661;53.288;10.458;2023-02-15T14:52:04;1480.18;;;999.90;;
7239;SDS011;3661;53.288;10.458;2023-02-15T14:54:57;1487.28;;;999.90;;
7239;SDS011;3661;53.288;10.458;2023-02-15T14:57:34;1486.22;;;999.90;;
7239;SDS011;3661;53.288;10.458;2023-02-15T15:03:11;1440.97;;;999.90;;
7239;SDS011;3661;53.288;10.458;2023-02-15T15:05:53;1454.55;;;999.90;;
7239;SDS011;3661;53.288;10.458;2023-02-15T15:08:29;1448.45;;;999.90;;
7239;SDS011;3661;53.288;10.458;2023-02-15T15:14:09;1447.97;;;999.90;;
7239;SDS011;3661;53.288;10.458;2023-02-15T15:16:50;1415.00;;;999.90;;
7239;SDS011;3661;53.288;10.458;2023-02-15T15:22:30;1421.07;;;999.90;;
7239;SDS011;3661;53.288;10.458;2023-02-15T15:25:07;1430.60;;;999.90;;
7239;SDS011;3661;53.288;10.458;2023-02-15T15:27:46;1414.30;;;999.90;;
7239;SDS011;3661;53.288;10.458;2023-02-15T15:37:01;1409.13;;;999.90;;
7239;SDS011;3661;53.288;10.458;2023-02-15T15:40:13;1401.60;;;999.90;;
7239;SDS011;3661;53.288;10.458;2023-02-15T15:43:24;1394.35;;;999.90;;
7239;SDS011;3661;53.288;10.458;2023-02-15T15:49:39;1324.85;;;999.90;;
7239;SDS011;3661;53.288;10.458;2023-02-15T15:52:12;1327.78;;;999.90;;
7239;SDS011;3661;53.288;10.458;2023-02-15T15:54:49;1299.25;;;999.90;;
7239;SDS011;3661;53.288;10.458;2023-02-15T15:57:27;1301.05;;;999.90;;
7239;SDS011;3661;53.288;10.458;2023-02-15T16:00:03;1261.47;;;999.90;;
7239;SDS011;3661;53.288;10.458;2023-02-15T16:02:49;1339.90;;;999.90;;
7239;SDS011;3661;53.288;10.458;2023-02-15T16:05:22;1302.20;;;999.90;;
7239;SDS011;3661;53.288;10.458;2023-02-15T16:07:54;1226.75;;;999.90;;
7239;SDS011;3661;53.288;10.458;2023-02-15T16:10:27;1272.72;;;999.90;;
7239;SDS011;3661;53.288;10.458;2023-02-15T16:13:04;1266.82;;;999.90;;
7239;SDS011;3661;53.288;10.458;2023-02-15T16:15:42;1229.55;;;999.90;;
7239;SDS011;3661;53.288;10.458;2023-02-15T16:18:20;1266.90;;;999.90;;
7239;SDS011;3661;53.288;10.458;2023-02-15T16:20:55;1318.72;;;999.90;;